Gibson, Mississippi
Current Conditions -  °F | °C
As of 10:35 AM on Sunday 21 Dec 2014 (Local Time) from KM40 Reporting Station
Scattered Clouds Scattered Clouds  
Wind Chill: 12°   Ceiling: Unl
Heat Index: 12°   Visibility: 9mi
Dew Point:   Wind: 0mph
Humidity: 54%   Direction: NA
Pressure: 30.19"   Gusts: NA
Location:  33.8251°N, 88.6185°W
Report Text: KM40 211635Z AUTO 00000KT 9SM SCT031 12/03 A3019 RMK AO2
Loading
Personal Weather Stations






























Interactive Weather Map New forecast layout! Learn more

10-Day Weather Forecast

Advertisements
Track Severe Weather on mobile